createdAt,value
2022-07-31T00:04:17.796Z,17.80
2022-07-31T00:09:52.706Z,17.78
2022-07-31T00:14:41.132Z,17.76
2022-07-31T00:19:42.772Z,17.74
2022-07-31T00:24:44.676Z,17.73
2022-07-31T00:29:46.368Z,17.75
2022-07-31T00:34:48.044Z,17.75
2022-07-31T00:39:49.736Z,17.68
2022-07-31T00:44:51.523Z,17.66
2022-07-31T00:49:53.286Z,17.59
2022-07-31T00:54:54.959Z,17.52
2022-07-31T00:59:56.665Z,17.49
2022-07-31T01:04:58.333Z,17.42
2022-07-31T01:10:01.024Z,17.38
2022-07-31T01:15:04.864Z,17.28
2022-07-31T01:20:08.543Z,17.24
2022-07-31T01:25:35.091Z,17.17
2022-07-31T01:31:26.091Z,17.13
2022-07-31T01:36:34.612Z,17.11
2022-07-31T01:41:40.436Z,17.13
2022-07-31T01:46:42.431Z,17.10
2022-07-31T01:51:45.445Z,17.13
2022-07-31T01:56:47.195Z,17.15
2022-07-31T02:01:48.986Z,17.09
2022-07-31T02:06:52.503Z,17.09
2022-07-31T02:11:54.918Z,17.11
2022-07-31T02:16:59.419Z,17.12
2022-07-31T02:22:18.609Z,17.16
2022-07-31T02:27:54.000Z,17.04
2022-07-31T02:32:47.885Z,17.05
2022-07-31T02:37:50.602Z,17.03
2022-07-31T02:42:52.776Z,16.98
2022-07-31T02:47:54.596Z,16.94
2022-07-31T02:52:56.357Z,16.91
2022-07-31T02:57:58.179Z,16.95
2022-07-31T03:03:00.103Z,16.97
2022-07-31T03:08:01.793Z,16.95
2022-07-31T03:13:03.765Z,16.90
2022-07-31T03:18:08.366Z,16.88
2022-07-31T03:23:15.178Z,16.90
2022-07-31T03:28:25.967Z,16.87
2022-07-31T03:33:28.227Z,16.81
2022-07-31T03:38:38.274Z,16.78
2022-07-31T03:43:48.472Z,16.80
2022-07-31T03:48:53.393Z,16.80
2022-07-31T03:53:56.560Z,16.79
2022-07-31T03:59:17.353Z,16.73
2022-07-31T04:04:19.358Z,16.73
2022-07-31T04:09:31.415Z,16.74
2022-07-31T04:14:33.830Z,16.72
2022-07-31T04:19:35.708Z,16.73
2022-07-31T04:24:37.573Z,16.74
2022-07-31T04:29:58.072Z,16.71
2022-07-31T04:34:59.794Z,16.74
2022-07-31T04:40:01.507Z,16.76
2022-07-31T04:45:03.592Z,16.73
2022-07-31T04:50:05.973Z,16.71
2022-07-31T04:55:07.969Z,16.73
2022-07-31T05:00:10.396Z,16.73
2022-07-31T05:05:12.136Z,16.75
2022-07-31T05:10:34.694Z,16.76
2022-07-31T05:15:36.913Z,16.86
2022-07-31T05:20:39.572Z,16.93
2022-07-31T05:26:01.873Z,17.04
2022-07-31T05:31:04.149Z,17.16
2022-07-31T05:36:06.398Z,17.26
2022-07-31T05:41:09.044Z,17.39
2022-07-31T05:46:31.032Z,17.43
2022-07-31T05:51:32.835Z,17.47
2022-07-31T05:56:34.716Z,17.56
2022-07-31T06:01:36.842Z,17.65
2022-07-31T06:06:40.331Z,17.74
2022-07-31T06:11:42.002Z,17.79
2022-07-31T06:16:45.453Z,17.99
2022-07-31T06:21:47.128Z,18.08
2022-07-31T06:26:52.322Z,18.12
2022-07-31T06:31:54.842Z,18.26
2022-07-31T06:36:56.980Z,18.32
2022-07-31T06:41:58.997Z,18.43
2022-07-31T06:47:00.744Z,18.53
2022-07-31T06:52:25.748Z,18.71
2022-07-31T06:57:28.206Z,18.86
2022-07-31T07:02:29.923Z,18.96
2022-07-31T07:07:32.268Z,19.08
2022-07-31T07:12:35.798Z,19.16
2022-07-31T07:17:37.622Z,19.34
2022-07-31T07:22:45.946Z,19.53
2022-07-31T07:27:53.783Z,19.64
2022-07-31T07:32:56.658Z,19.77
2022-07-31T07:37:58.441Z,19.82
2022-07-31T07:43:03.154Z,19.79
2022-07-31T07:48:07.513Z,19.79
2022-07-31T07:53:36.827Z,19.97
2022-07-31T07:58:56.575Z,19.80
2022-07-31T08:04:16.776Z,20.09
2022-07-31T08:09:21.064Z,20.28
2022-07-31T08:14:40.852Z,20.26
2022-07-31T08:20:21.185Z,20.32
2022-07-31T08:25:24.060Z,20.34
2022-07-31T08:30:32.951Z,20.43
2022-07-31T08:35:34.932Z,20.54
2022-07-31T08:40:43.161Z,20.63
2022-07-31T08:45:46.061Z,20.83
2022-07-31T08:50:59.127Z,21.03
2022-07-31T08:56:39.166Z,21.17
2022-07-31T09:01:40.989Z,21.33
2022-07-31T09:06:42.784Z,21.44
2022-07-31T09:11:50.835Z,21.61
2022-07-31T09:17:31.771Z,21.80
2022-07-31T09:22:33.886Z,21.97
2022-07-31T09:27:38.600Z,22.14
2022-07-31T09:32:40.726Z,22.36
2022-07-31T09:37:47.446Z,22.64
2022-07-31T09:43:19.782Z,22.80
2022-07-31T09:48:26.650Z,22.98
2022-07-31T09:53:45.378Z,23.13
2022-07-31T09:59:08.781Z,23.31
2022-07-31T10:04:13.569Z,23.35
2022-07-31T10:09:15.609Z,23.55
2022-07-31T10:14:35.749Z,23.75
2022-07-31T10:19:38.561Z,24.00
2022-07-31T10:24:54.384Z,24.18
2022-07-31T10:29:56.547Z,24.39
2022-07-31T10:34:58.828Z,24.56
2022-07-31T10:40:35.265Z,24.62
2022-07-31T10:45:52.135Z,24.72
2022-07-31T10:51:17.004Z,25.10
2022-07-31T10:56:43.445Z,25.22
2022-07-31T11:02:10.941Z,25.31
2022-07-31T11:07:30.332Z,25.36
2022-07-31T11:12:40.984Z,25.54
2022-07-31T11:18:23.315Z,26.01
2022-07-31T11:23:37.949Z,26.03
2022-07-31T11:28:39.610Z,26.48
2022-07-31T11:33:46.155Z,27.11
2022-07-31T11:38:49.787Z,27.56
2022-07-31T11:43:51.667Z,27.50
2022-07-31T11:48:56.964Z,26.90
2022-07-31T11:53:59.179Z,27.50
2022-07-31T11:59:00.860Z,27.80
2022-07-31T12:04:09.234Z,27.80
2022-07-31T12:10:02.277Z,27.97
2022-07-31T12:14:37.929Z,27.93
2022-07-31T12:19:39.642Z,27.88
2022-07-31T12:24:41.361Z,27.95
2022-07-31T12:29:43.060Z,27.43
2022-07-31T12:34:45.441Z,27.52
2022-07-31T12:39:53.904Z,27.40
2022-07-31T12:45:19.152Z,27.34
2022-07-31T12:50:22.362Z,27.14
2022-07-31T12:55:24.262Z,27.24
2022-07-31T13:00:26.620Z,27.65
2022-07-31T13:05:29.428Z,29.00
2022-07-31T13:10:32.331Z,29.31
2022-07-31T13:15:34.304Z,30.65
2022-07-31T13:20:35.965Z,31.67
2022-07-31T13:25:37.625Z,31.39
2022-07-31T13:30:39.275Z,30.41
2022-07-31T13:35:41.080Z,30.18
2022-07-31T13:41:01.206Z,30.57
2022-07-31T13:46:04.020Z,30.57
2022-07-31T13:51:05.956Z,30.12
2022-07-31T13:56:07.646Z,30.24
2022-07-31T14:01:09.368Z,30.26
2022-07-31T14:06:11.080Z,30.01
2022-07-31T14:11:13.838Z,28.79
2022-07-31T14:16:16.928Z,28.97
2022-07-31T14:21:18.594Z,29.00
2022-07-31T14:26:20.248Z,28.68
2022-07-31T14:31:21.939Z,27.99
2022-07-31T14:36:23.684Z,27.71
2022-07-31T14:41:25.333Z,27.52
2022-07-31T14:46:26.993Z,27.44
2022-07-31T14:51:29.132Z,27.29
2022-07-31T14:56:58.535Z,27.05
2022-07-31T15:01:52.756Z,26.80
2022-07-31T15:07:07.756Z,26.43
2022-07-31T15:12:16.922Z,26.43
2022-07-31T15:17:18.643Z,26.26
2022-07-31T15:22:20.319Z,26.28
2022-07-31T15:27:22.243Z,26.04
2022-07-31T15:32:24.116Z,26.00
2022-07-31T15:37:25.770Z,25.89
2022-07-31T15:42:27.434Z,25.95
2022-07-31T15:47:29.109Z,25.64
2022-07-31T15:52:30.761Z,25.70
2022-07-31T15:57:32.400Z,25.64
2022-07-31T16:02:34.053Z,25.71
2022-07-31T16:08:29.030Z,25.53
2022-07-31T16:12:57.545Z,25.51
2022-07-31T16:17:59.213Z,25.32
2022-07-31T16:23:01.539Z,25.28
2022-07-31T16:28:04.145Z,25.20
2022-07-31T16:33:05.861Z,25.15
2022-07-31T16:38:08.051Z,25.08
2022-07-31T16:43:47.393Z,25.03
2022-07-31T16:48:31.332Z,24.89
2022-07-31T16:54:10.755Z,24.76
2022-07-31T16:58:55.529Z,24.56
2022-07-31T17:04:01.401Z,24.41
2022-07-31T17:09:16.805Z,24.22
2022-07-31T17:14:23.659Z,24.04
2022-07-31T17:19:36.270Z,23.51
2022-07-31T17:24:44.435Z,23.05
2022-07-31T17:29:46.157Z,22.73
2022-07-31T17:34:49.415Z,22.17
2022-07-31T17:39:55.108Z,21.51
2022-07-31T17:45:01.709Z,20.80
2022-07-31T17:50:03.664Z,20.29
2022-07-31T17:55:06.562Z,19.86
2022-07-31T18:00:09.859Z,19.32
2022-07-31T18:05:11.574Z,19.19
2022-07-31T18:10:13.255Z,18.87
2022-07-31T18:15:15.092Z,18.67
2022-07-31T18:20:21.475Z,18.53
2022-07-31T18:25:23.142Z,18.51
2022-07-31T18:30:30.365Z,18.36
2022-07-31T18:35:34.544Z,18.30
2022-07-31T18:40:36.197Z,18.21
2022-07-31T18:45:41.475Z,18.25
2022-07-31T18:50:58.985Z,18.27
2022-07-31T18:56:05.133Z,18.30
2022-07-31T19:01:06.816Z,18.37
2022-07-31T19:06:08.563Z,18.46
2022-07-31T19:11:11.682Z,18.51
2022-07-31T19:16:13.376Z,18.50
2022-07-31T19:21:38.510Z,18.53
2022-07-31T19:26:40.038Z,18.67
2022-07-31T19:31:41.774Z,18.69
2022-07-31T19:36:43.481Z,18.69
2022-07-31T19:42:10.654Z,18.65
2022-07-31T19:47:06.833Z,18.71
2022-07-31T19:52:08.581Z,18.68
2022-07-31T19:57:10.949Z,18.82
2022-07-31T20:02:16.742Z,18.80
2022-07-31T20:07:18.684Z,18.76
2022-07-31T20:12:20.345Z,18.80
2022-07-31T20:17:22.052Z,18.81
2022-07-31T20:22:23.831Z,18.78
2022-07-31T20:27:26.036Z,18.86
2022-07-31T20:32:27.725Z,18.90
2022-07-31T20:37:30.603Z,18.94
2022-07-31T20:42:32.286Z,18.94
2022-07-31T20:47:33.962Z,18.93
2022-07-31T20:52:35.617Z,18.86
2022-07-31T20:57:37.356Z,18.88
2022-07-31T21:02:39.183Z,18.83
2022-07-31T21:07:40.940Z,18.75
2022-07-31T21:12:42.583Z,18.72
2022-07-31T21:17:44.243Z,18.69
2022-07-31T21:22:45.898Z,18.60
2022-07-31T21:27:47.607Z,18.52
2022-07-31T21:32:49.463Z,18.51
2022-07-31T21:37:51.387Z,18.50
2022-07-31T21:42:58.595Z,18.41
2022-07-31T21:48:01.936Z,18.43
2022-07-31T21:53:03.629Z,18.45
2022-07-31T21:58:05.761Z,18.46
2022-07-31T22:03:07.477Z,18.49
2022-07-31T22:08:09.130Z,18.42
2022-07-31T22:13:10.811Z,18.39
2022-07-31T22:18:12.690Z,18.40
2022-07-31T22:23:14.558Z,18.39
2022-07-31T22:28:20.357Z,18.37
2022-07-31T22:33:22.100Z,18.34
2022-07-31T22:38:25.058Z,18.33
2022-07-31T22:44:11.137Z,18.34
2022-07-31T22:48:49.049Z,18.37
2022-07-31T22:53:52.057Z,18.40
2022-07-31T22:58:53.755Z,18.35
2022-07-31T23:03:55.460Z,18.33
2022-07-31T23:08:57.177Z,18.36
2022-07-31T23:13:58.912Z,18.42
2022-07-31T23:19:00.591Z,18.50
2022-07-31T23:24:02.283Z,18.46
2022-07-31T23:29:03.957Z,18.47
2022-07-31T23:34:05.749Z,18.49
2022-07-31T23:39:08.973Z,18.55
2022-07-31T23:44:10.855Z,18.65
2022-07-31T23:49:12.659Z,18.70
2022-07-31T23:54:15.719Z,18.74
2022-07-31T23:59:17.401Z,18.77
